sensor_id;sensor_type;location;lat;lon;timestamp;temperature;humidity
27540;DHT22;15906;52.046;4.724;2023-05-19T00:01:10;10.00;99.90
27540;DHT22;15906;52.046;4.724;2023-05-19T00:03:42;9.80;99.90
27540;DHT22;15906;52.046;4.724;2023-05-19T00:06:12;9.90;99.90
27540;DHT22;15906;52.046;4.724;2023-05-19T00:08:38;9.90;99.90
27540;DHT22;15906;52.046;4.724;2023-05-19T00:11:05;9.90;99.90
27540;DHT22;15906;52.046;4.724;2023-05-19T00:13:31;9.80;99.90
27540;DHT22;15906;52.046;4.724;2023-05-19T00:15:57;9.80;99.90
27540;DHT22;15906;52.046;4.724;2023-05-19T00:18:22;9.80;99.90
27540;DHT22;15906;52.046;4.724;2023-05-19T00:20:48;9.80;99.90
27540;DHT22;15906;52.046;4.724;2023-05-19T00:23:14;9.70;99.90
27540;DHT22;15906;52.046;4.724;2023-05-19T00:25:39;9.70;99.90
27540;DHT22;15906;52.046;4.724;2023-05-19T00:28:05;9.70;99.90
27540;DHT22;15906;52.046;4.724;2023-05-19T00:30:31;9.70;99.90
27540;DHT22;15906;52.046;4.724;2023-05-19T00:32:56;9.70;99.90
27540;DHT22;15906;52.046;4.724;2023-05-19T00:35:22;9.60;99.90
27540;DHT22;15906;52.046;4.724;2023-05-19T00:37:48;9.50;99.90
27540;DHT22;15906;52.046;4.724;2023-05-19T00:40:14;9.50;99.90
27540;DHT22;15906;52.046;4.724;2023-05-19T00:42:40;9.50;99.90
27540;DHT22;15906;52.046;4.724;2023-05-19T00:45:06;9.60;99.90
27540;DHT22;15906;52.046;4.724;2023-05-19T00:47:32;9.50;99.90
27540;DHT22;15906;52.046;4.724;2023-05-19T00:49:58;9.50;99.90
27540;DHT22;15906;52.046;4.724;2023-05-19T00:52:24;9.50;99.90
27540;DHT22;15906;52.046;4.724;2023-05-19T00:54:50;9.40;99.90
27540;DHT22;15906;52.046;4.724;2023-05-19T00:57:16;9.30;99.90
27540;DHT22;15906;52.046;4.724;2023-05-19T00:59:42;9.30;99.90
27540;DHT22;15906;52.046;4.724;2023-05-19T01:02:07;9.30;99.90
27540;DHT22;15906;52.046;4.724;2023-05-19T01:04:35;9.30;99.90
27540;DHT22;15906;52.046;4.724;2023-05-19T01:07:01;9.30;99.90
27540;DHT22;15906;52.046;4.724;2023-05-19T01:09:27;9.30;99.90
27540;DHT22;15906;52.046;4.724;2023-05-19T01:11:54;9.30;99.90
27540;DHT22;15906;52.046;4.724;2023-05-19T01:14:20;9.30;99.90
27540;DHT22;15906;52.046;4.724;2023-05-19T01:17:06;9.10;99.90
27540;DHT22;15906;52.046;4.724;2023-05-19T01:19:50;9.30;99.90
27540;DHT22;15906;52.046;4.724;2023-05-19T01:22:38;9.20;99.90
27540;DHT22;15906;52.046;4.724;2023-05-19T01:30:44;9.10;99.90
27540;DHT22;15906;52.046;4.724;2023-05-19T01:33:13;9.10;99.90
27540;DHT22;15906;52.046;4.724;2023-05-19T01:35:40;9.10;99.90
27540;DHT22;15906;52.046;4.724;2023-05-19T01:38:08;9.10;99.90
27540;DHT22;15906;52.046;4.724;2023-05-19T01:40:35;9.00;99.90
27540;DHT22;15906;52.046;4.724;2023-05-19T01:43:01;9.00;99.90
27540;DHT22;15906;52.046;4.724;2023-05-19T01:45:29;9.00;99.90
27540;DHT22;15906;52.046;4.724;2023-05-19T01:47:58;9.00;99.90
27540;DHT22;15906;52.046;4.724;2023-05-19T01:50:23;9.00;99.90
27540;DHT22;15906;52.046;4.724;2023-05-19T01:52:49;9.00;99.90
27540;DHT22;15906;52.046;4.724;2023-05-19T01:55:15;9.00;99.90
27540;DHT22;15906;52.046;4.724;2023-05-19T02:00:33;8.90;99.90
27540;DHT22;15906;52.046;4.724;2023-05-19T02:04:04;9.00;99.90
27540;DHT22;15906;52.046;4.724;2023-05-19T02:09:01;8.90;99.90
27540;DHT22;15906;52.046;4.724;2023-05-19T02:11:40;8.90;99.90
27540;DHT22;15906;52.046;4.724;2023-05-19T02:14:21;9.00;99.90
27540;DHT22;15906;52.046;4.724;2023-05-19T02:16:47;8.90;99.90
27540;DHT22;15906;52.046;4.724;2023-05-19T02:19:35;8.90;99.90
27540;DHT22;15906;52.046;4.724;2023-05-19T02:22:01;8.80;99.90
27540;DHT22;15906;52.046;4.724;2023-05-19T02:24:26;8.80;99.90
27540;DHT22;15906;52.046;4.724;2023-05-19T02:26:53;8.80;99.90
27540;DHT22;15906;52.046;4.724;2023-05-19T02:29:19;8.80;99.90
27540;DHT22;15906;52.046;4.724;2023-05-19T02:31:45;8.80;99.90
27540;DHT22;15906;52.046;4.724;2023-05-19T02:34:11;8.90;99.90
27540;DHT22;15906;52.046;4.724;2023-05-19T02:36:39;8.80;99.90
27540;DHT22;15906;52.046;4.724;2023-05-19T02:39:06;8.80;99.90
27540;DHT22;15906;52.046;4.724;2023-05-19T02:41:31;8.80;99.90
27540;DHT22;15906;52.046;4.724;2023-05-19T02:43:57;8.80;99.90
27540;DHT22;15906;52.046;4.724;2023-05-19T02:46:22;8.90;99.90
27540;DHT22;15906;52.046;4.724;2023-05-19T02:48:49;8.70;99.90
27540;DHT22;15906;52.046;4.724;2023-05-19T02:51:14;8.80;99.90
27540;DHT22;15906;52.046;4.724;2023-05-19T02:53:40;8.80;99.90
27540;DHT22;15906;52.046;4.724;2023-05-19T02:56:05;8.70;99.90
27540;DHT22;15906;52.046;4.724;2023-05-19T02:58:31;8.70;99.90
27540;DHT22;15906;52.046;4.724;2023-05-19T03:00:57;8.70;99.90
27540;DHT22;15906;52.046;4.724;2023-05-19T03:03:22;8.60;99.90
27540;DHT22;15906;52.046;4.724;2023-05-19T03:05:48;8.60;99.90
27540;DHT22;15906;52.046;4.724;2023-05-19T03:08:14;8.50;99.90
27540;DHT22;15906;52.046;4.724;2023-05-19T03:10:39;8.60;99.90
27540;DHT22;15906;52.046;4.724;2023-05-19T03:13:05;8.50;99.90
27540;DHT22;15906;52.046;4.724;2023-05-19T03:15:31;8.50;99.90
27540;DHT22;15906;52.046;4.724;2023-05-19T03:17:57;8.60;99.90
27540;DHT22;15906;52.046;4.724;2023-05-19T03:20:23;8.60;99.90
27540;DHT22;15906;52.046;4.724;2023-05-19T03:22:49;8.50;99.90
27540;DHT22;15906;52.046;4.724;2023-05-19T03:25:15;8.60;99.90
27540;DHT22;15906;52.046;4.724;2023-05-19T03:27:41;8.50;99.90
27540;DHT22;15906;52.046;4.724;2023-05-19T03:30:07;8.50;99.90
27540;DHT22;15906;52.046;4.724;2023-05-19T03:32:33;8.40;99.90
27540;DHT22;15906;52.046;4.724;2023-05-19T03:35:02;8.40;99.90
27540;DHT22;15906;52.046;4.724;2023-05-19T03:37:28;8.50;99.90
27540;DHT22;15906;52.046;4.724;2023-05-19T03:39:54;8.50;99.90
27540;DHT22;15906;52.046;4.724;2023-05-19T03:42:19;8.50;99.90
27540;DHT22;15906;52.046;4.724;2023-05-19T03:44:45;8.40;99.90
27540;DHT22;15906;52.046;4.724;2023-05-19T03:47:11;8.50;99.90
27540;DHT22;15906;52.046;4.724;2023-05-19T03:49:36;8.40;99.90
27540;DHT22;15906;52.046;4.724;2023-05-19T03:52:02;8.40;99.90
27540;DHT22;15906;52.046;4.724;2023-05-19T03:54:28;8.40;99.90
27540;DHT22;15906;52.046;4.724;2023-05-19T03:56:53;8.40;99.90
27540;DHT22;15906;52.046;4.724;2023-05-19T03:59:19;8.40;99.90
27540;DHT22;15906;52.046;4.724;2023-05-19T04:01:45;8.40;99.90
27540;DHT22;15906;52.046;4.724;2023-05-19T04:04:10;8.40;99.90
27540;DHT22;15906;52.046;4.724;2023-05-19T04:06:36;8.40;99.90
27540;DHT22;15906;52.046;4.724;2023-05-19T04:09:02;8.40;99.90
27540;DHT22;15906;52.046;4.724;2023-05-19T04:11:35;8.50;99.90
27540;DHT22;15906;52.046;4.724;2023-05-19T04:14:01;8.50;99.90
27540;DHT22;15906;52.046;4.724;2023-05-19T04:16:27;8.40;99.90
27540;DHT22;15906;52.046;4.724;2023-05-19T04:18:52;8.50;99.90
27540;DHT22;15906;52.046;4.724;2023-05-19T04:21:18;8.50;99.90
27540;DHT22;15906;52.046;4.724;2023-05-19T04:23:45;8.50;99.90
27540;DHT22;15906;52.046;4.724;2023-05-19T04:26:11;8.50;99.90
27540;DHT22;15906;52.046;4.724;2023-05-19T04:28:39;8.50;99.90
27540;DHT22;15906;52.046;4.724;2023-05-19T04:31:07;8.50;99.90
27540;DHT22;15906;52.046;4.724;2023-05-19T04:33:38;8.50;99.90
27540;DHT22;15906;52.046;4.724;2023-05-19T04:36:07;8.40;99.90
27540;DHT22;15906;52.046;4.724;2023-05-19T04:38:37;8.60;99.90
27540;DHT22;15906;52.046;4.724;2023-05-19T04:41:05;8.50;99.90
27540;DHT22;15906;52.046;4.724;2023-05-19T04:43:34;8.50;99.90
27540;DHT22;15906;52.046;4.724;2023-05-19T04:46:00;8.50;99.90
27540;DHT22;15906;52.046;4.724;2023-05-19T04:48:26;8.60;99.90
27540;DHT22;15906;52.046;4.724;2023-05-19T04:50:55;8.70;99.90
27540;DHT22;15906;52.046;4.724;2023-05-19T04:53:20;8.70;99.90
27540;DHT22;15906;52.046;4.724;2023-05-19T04:55:46;8.70;99.90
27540;DHT22;15906;52.046;4.724;2023-05-19T04:58:11;8.80;99.90
27540;DHT22;15906;52.046;4.724;2023-05-19T05:00:37;8.70;99.90
27540;DHT22;15906;52.046;4.724;2023-05-19T05:03:02;8.70;99.90
27540;DHT22;15906;52.046;4.724;2023-05-19T05:05:30;8.70;99.90
27540;DHT22;15906;52.046;4.724;2023-05-19T05:07:56;8.90;99.90
27540;DHT22;15906;52.046;4.724;2023-05-19T05:10:23;8.90;99.90
27540;DHT22;15906;52.046;4.724;2023-05-19T05:12:49;9.00;99.90
27540;DHT22;15906;52.046;4.724;2023-05-19T05:15:15;8.90;99.90
27540;DHT22;15906;52.046;4.724;2023-05-19T05:17:40;9.10;99.90
27540;DHT22;15906;52.046;4.724;2023-05-19T05:20:07;9.20;99.90
27540;DHT22;15906;52.046;4.724;2023-05-19T05:22:33;9.30;99.90
27540;DHT22;15906;52.046;4.724;2023-05-19T05:24:59;9.20;99.90
27540;DHT22;15906;52.046;4.724;2023-05-19T05:27:25;9.20;99.90
27540;DHT22;15906;52.046;4.724;2023-05-19T05:29:52;9.30;99.90
27540;DHT22;15906;52.046;4.724;2023-05-19T05:32:17;9.30;99.90
27540;DHT22;15906;52.046;4.724;2023-05-19T05:34:43;9.40;99.90
27540;DHT22;15906;52.046;4.724;2023-05-19T05:37:09;9.40;99.90
27540;DHT22;15906;52.046;4.724;2023-05-19T05:39:34;9.50;99.90
27540;DHT22;15906;52.046;4.724;2023-05-19T05:42:00;9.60;99.90
27540;DHT22;15906;52.046;4.724;2023-05-19T05:44:25;9.60;99.90
27540;DHT22;15906;52.046;4.724;2023-05-19T05:46:51;9.60;99.90
27540;DHT22;15906;52.046;4.724;2023-05-19T05:49:18;9.60;99.90
27540;DHT22;15906;52.046;4.724;2023-05-19T05:51:43;9.70;99.90
27540;DHT22;15906;52.046;4.724;2023-05-19T05:54:11;9.70;99.90
27540;DHT22;15906;52.046;4.724;2023-05-19T05:56:37;9.80;99.90
27540;DHT22;15906;52.046;4.724;2023-05-19T05:59:02;9.80;99.90
27540;DHT22;15906;52.046;4.724;2023-05-19T06:01:28;10.00;99.90
27540;DHT22;15906;52.046;4.724;2023-05-19T06:03:56;10.10;99.90
27540;DHT22;15906;52.046;4.724;2023-05-19T06:06:22;10.20;99.90
27540;DHT22;15906;52.046;4.724;2023-05-19T06:08:47;10.20;99.90
27540;DHT22;15906;52.046;4.724;2023-05-19T06:11:13;10.40;99.90
27540;DHT22;15906;52.046;4.724;2023-05-19T06:13:39;10.50;99.90
27540;DHT22;15906;52.046;4.724;2023-05-19T06:16:07;10.60;99.90
27540;DHT22;15906;52.046;4.724;2023-05-19T06:18:33;10.70;99.90
27540;DHT22;15906;52.046;4.724;2023-05-19T06:20:58;10.80;99.90
27540;DHT22;15906;52.046;4.724;2023-05-19T06:23:24;10.90;99.90
27540;DHT22;15906;52.046;4.724;2023-05-19T06:25:51;11.00;99.90
27540;DHT22;15906;52.046;4.724;2023-05-19T06:28:17;11.20;99.90
27540;DHT22;15906;52.046;4.724;2023-05-19T06:30:42;11.30;99.90
27540;DHT22;15906;52.046;4.724;2023-05-19T06:33:08;11.40;99.90
27540;DHT22;15906;52.046;4.724;2023-05-19T06:35:33;11.50;99.90
27540;DHT22;15906;52.046;4.724;2023-05-19T06:37:59;11.50;99.90
27540;DHT22;15906;52.046;4.724;2023-05-19T06:40:24;11.60;99.90
27540;DHT22;15906;52.046;4.724;2023-05-19T06:42:50;11.70;99.90
27540;DHT22;15906;52.046;4.724;2023-05-19T06:45:16;11.90;99.90
27540;DHT22;15906;52.046;4.724;2023-05-19T06:47:46;12.00;99.90
27540;DHT22;15906;52.046;4.724;2023-05-19T06:50:11;12.30;99.90
27540;DHT22;15906;52.046;4.724;2023-05-19T06:52:37;12.40;99.90
27540;DHT22;15906;52.046;4.724;2023-05-19T06:55:02;12.50;99.90
27540;DHT22;15906;52.046;4.724;2023-05-19T06:57:28;12.60;99.90
27540;DHT22;15906;52.046;4.724;2023-05-19T06:59:54;12.80;99.90
27540;DHT22;15906;52.046;4.724;2023-05-19T07:02:19;12.90;99.90
27540;DHT22;15906;52.046;4.724;2023-05-19T07:04:45;13.00;99.90
27540;DHT22;15906;52.046;4.724;2023-05-19T07:07:11;13.00;99.90
27540;DHT22;15906;52.046;4.724;2023-05-19T07:09:37;13.10;99.90
27540;DHT22;15906;52.046;4.724;2023-05-19T07:12:03;13.10;99.90
27540;DHT22;15906;52.046;4.724;2023-05-19T07:14:28;13.20;99.90
27540;DHT22;15906;52.046;4.724;2023-05-19T07:16:54;13.20;99.90
27540;DHT22;15906;52.046;4.724;2023-05-19T07:19:19;13.30;99.90
27540;DHT22;15906;52.046;4.724;2023-05-19T07:21:45;13.20;99.90
27540;DHT22;15906;52.046;4.724;2023-05-19T07:24:11;13.30;99.90
27540;DHT22;15906;52.046;4.724;2023-05-19T07:26:37;13.50;99.90
27540;DHT22;15906;52.046;4.724;2023-05-19T07:29:02;13.50;99.90
27540;DHT22;15906;52.046;4.724;2023-05-19T07:31:28;13.70;99.90
27540;DHT22;15906;52.046;4.724;2023-05-19T07:33:53;13.80;99.90
27540;DHT22;15906;52.046;4.724;2023-05-19T07:36:19;14.00;99.90
27540;DHT22;15906;52.046;4.724;2023-05-19T07:38:45;14.10;99.90
27540;DHT22;15906;52.046;4.724;2023-05-19T07:41:11;14.20;99.90
27540;DHT22;15906;52.046;4.724;2023-05-19T07:43:37;14.40;99.90
27540;DHT22;15906;52.046;4.724;2023-05-19T07:46:03;14.70;99.90
27540;DHT22;15906;52.046;4.724;2023-05-19T07:48:29;15.00;99.90
27540;DHT22;15906;52.046;4.724;2023-05-19T07:50:54;15.10;99.90
27540;DHT22;15906;52.046;4.724;2023-05-19T07:53:20;15.30;99.90
27540;DHT22;15906;52.046;4.724;2023-05-19T07:55:47;15.20;99.90
27540;DHT22;15906;52.046;4.724;2023-05-19T07:58:13;15.20;99.90
27540;DHT22;15906;52.046;4.724;2023-05-19T08:00:39;15.50;99.90
27540;DHT22;15906;52.046;4.724;2023-05-19T08:03:10;15.60;99.90
27540;DHT22;15906;52.046;4.724;2023-05-19T08:05:36;15.80;99.90
27540;DHT22;15906;52.046;4.724;2023-05-19T08:08:02;16.00;99.90
27540;DHT22;15906;52.046;4.724;2023-05-19T08:10:28;16.00;99.90
27540;DHT22;15906;52.046;4.724;2023-05-19T08:12:53;16.00;99.90
27540;DHT22;15906;52.046;4.724;2023-05-19T08:15:19;16.10;99.90
27540;DHT22;15906;52.046;4.724;2023-05-19T08:17:45;16.20;99.90
27540;DHT22;15906;52.046;4.724;2023-05-19T08:20:11;16.50;99.90
27540;DHT22;15906;52.046;4.724;2023-05-19T08:22:37;16.70;99.90
27540;DHT22;15906;52.046;4.724;2023-05-19T08:25:03;16.90;99.90
27540;DHT22;15906;52.046;4.724;2023-05-19T08:27:32;16.80;99.90
27540;DHT22;15906;52.046;4.724;2023-05-19T08:29:58;16.90;99.90
27540;DHT22;15906;52.046;4.724;2023-05-19T08:32:23;17.10;99.90
27540;DHT22;15906;52.046;4.724;2023-05-19T08:34:49;17.10;99.90
27540;DHT22;15906;52.046;4.724;2023-05-19T08:37:15;17.30;99.90
27540;DHT22;15906;52.046;4.724;2023-05-19T08:39:40;17.40;99.90
27540;DHT22;15906;52.046;4.724;2023-05-19T08:42:06;17.40;99.90
27540;DHT22;15906;52.046;4.724;2023-05-19T08:44:37;17.30;99.90
27540;DHT22;15906;52.046;4.724;2023-05-19T08:47:04;17.00;99.90
27540;DHT22;15906;52.046;4.724;2023-05-19T08:49:34;17.20;99.90
27540;DHT22;15906;52.046;4.724;2023-05-19T08:52:18;17.30;99.40
27540;DHT22;15906;52.046;4.724;2023-05-19T08:57:42;17.70;98.80
27540;DHT22;15906;52.046;4.724;2023-05-19T09:00:09;17.90;98.50
27540;DHT22;15906;52.046;4.724;2023-05-19T09:02:37;17.80;98.20
27540;DHT22;15906;52.046;4.724;2023-05-19T09:05:04;18.00;99.10
27540;DHT22;15906;52.046;4.724;2023-05-19T09:07:30;17.90;98.40
27540;DHT22;15906;52.046;4.724;2023-05-19T09:09:59;18.30;99.90
27540;DHT22;15906;52.046;4.724;2023-05-19T09:12:25;18.60;97.90
27540;DHT22;15906;52.046;4.724;2023-05-19T09:14:51;18.50;96.30
27540;DHT22;15906;52.046;4.724;2023-05-19T09:17:17;18.50;96.50
27540;DHT22;15906;52.046;4.724;2023-05-19T09:19:44;18.60;97.10
27540;DHT22;15906;52.046;4.724;2023-05-19T09:22:13;18.70;95.70
27540;DHT22;15906;52.046;4.724;2023-05-19T09:24:40;18.70;96.60
27540;DHT22;15906;52.046;4.724;2023-05-19T09:27:06;19.00;96.10
27540;DHT22;15906;52.046;4.724;2023-05-19T09:29:32;19.10;95.60
27540;DHT22;15906;52.046;4.724;2023-05-19T09:31:57;18.90;93.80
27540;DHT22;15906;52.046;4.724;2023-05-19T09:34:28;18.80;94.00
27540;DHT22;15906;52.046;4.724;2023-05-19T09:36:54;18.90;94.50
27540;DHT22;15906;52.046;4.724;2023-05-19T09:39:21;19.30;96.10
27540;DHT22;15906;52.046;4.724;2023-05-19T09:41:50;19.20;93.30
27540;DHT22;15906;52.046;4.724;2023-05-19T09:44:21;19.10;92.20
27540;DHT22;15906;52.046;4.724;2023-05-19T09:46:51;19.00;92.90
27540;DHT22;15906;52.046;4.724;2023-05-19T09:49:21;19.00;92.60
27540;DHT22;15906;52.046;4.724;2023-05-19T09:51:54;19.10;92.70
27540;DHT22;15906;52.046;4.724;2023-05-19T09:54:21;19.30;93.20
27540;DHT22;15906;52.046;4.724;2023-05-19T09:56:59;19.50;90.80
27540;DHT22;15906;52.046;4.724;2023-05-19T09:59:26;19.60;91.10
27540;DHT22;15906;52.046;4.724;2023-05-19T10:01:54;19.80;91.70
27540;DHT22;15906;52.046;4.724;2023-05-19T10:04:21;19.80;92.00
27540;DHT22;15906;52.046;4.724;2023-05-19T10:06:49;20.00;91.10
27540;DHT22;15906;52.046;4.724;2023-05-19T10:09:25;20.40;88.10
27540;DHT22;15906;52.046;4.724;2023-05-19T10:11:52;20.40;90.50
27540;DHT22;15906;52.046;4.724;2023-05-19T10:14:23;20.50;88.50
27540;DHT22;15906;52.046;4.724;2023-05-19T10:16:54;20.40;87.60
27540;DHT22;15906;52.046;4.724;2023-05-19T10:19:21;20.40;90.30
27540;DHT22;15906;52.046;4.724;2023-05-19T10:21:48;20.40;91.30
27540;DHT22;15906;52.046;4.724;2023-05-19T10:24:14;20.40;89.50
27540;DHT22;15906;52.046;4.724;2023-05-19T10:26:43;19.70;85.40
27540;DHT22;15906;52.046;4.724;2023-05-19T10:29:10;19.50;90.50
27540;DHT22;15906;52.046;4.724;2023-05-19T10:31:37;19.60;91.00
27540;DHT22;15906;52.046;4.724;2023-05-19T10:34:35;19.50;91.50
27540;DHT22;15906;52.046;4.724;2023-05-19T10:38:15;19.40;90.30
27540;DHT22;15906;52.046;4.724;2023-05-19T10:40:36;19.30;92.00
27540;DHT22;15906;52.046;4.724;2023-05-19T10:45:51;19.60;92.40
27540;DHT22;15906;52.046;4.724;2023-05-19T10:48:20;20.00;90.40
27540;DHT22;15906;52.046;4.724;2023-05-19T10:50:48;20.20;89.30
27540;DHT22;15906;52.046;4.724;2023-05-19T10:53:17;20.40;88.80
27540;DHT22;15906;52.046;4.724;2023-05-19T10:55:53;20.60;91.70
27540;DHT22;15906;52.046;4.724;2023-05-19T11:01:07;20.70;88.60
27540;DHT22;15906;52.046;4.724;2023-05-19T11:03:44;20.90;88.40
27540;DHT22;15906;52.046;4.724;2023-05-19T11:09:21;20.80;90.70
27540;DHT22;15906;52.046;4.724;2023-05-19T11:11:48;20.70;89.50
27540;DHT22;15906;52.046;4.724;2023-05-19T11:14:17;20.40;84.00
27540;DHT22;15906;52.046;4.724;2023-05-19T11:16:46;20.30;86.00
27540;DHT22;15906;52.046;4.724;2023-05-19T11:19:32;20.20;85.30
27540;DHT22;15906;52.046;4.724;2023-05-19T11:22:09;20.20;85.70
27540;DHT22;15906;52.046;4.724;2023-05-19T11:24:45;20.30;89.90
27540;DHT22;15906;52.046;4.724;2023-05-19T11:29:43;20.90;88.20
27540;DHT22;15906;52.046;4.724;2023-05-19T11:32:10;21.00;84.00
27540;DHT22;15906;52.046;4.724;2023-05-19T11:34:36;21.00;85.00
27540;DHT22;15906;52.046;4.724;2023-05-19T11:37:03;21.00;85.80
27540;DHT22;15906;52.046;4.724;2023-05-19T11:39:30;20.90;83.40
27540;DHT22;15906;52.046;4.724;2023-05-19T11:41:56;21.00;88.20
27540;DHT22;15906;52.046;4.724;2023-05-19T11:44:21;21.00;81.30
27540;DHT22;15906;52.046;4.724;2023-05-19T11:46:47;21.20;88.70
27540;DHT22;15906;52.046;4.724;2023-05-19T11:49:14;21.50;85.90
27540;DHT22;15906;52.046;4.724;2023-05-19T11:51:42;21.60;83.70
27540;DHT22;15906;52.046;4.724;2023-05-19T11:54:09;21.70;81.70
27540;DHT22;15906;52.046;4.724;2023-05-19T11:56:42;21.80;88.70
27540;DHT22;15906;52.046;4.724;2023-05-19T11:59:08;21.80;85.70
27540;DHT22;15906;52.046;4.724;2023-05-19T12:01:34;21.80;85.80
27540;DHT22;15906;52.046;4.724;2023-05-19T12:04:00;21.90;86.00
27540;DHT22;15906;52.046;4.724;2023-05-19T12:06:27;21.80;82.50
27540;DHT22;15906;52.046;4.724;2023-05-19T12:08:53;21.40;83.70
27540;DHT22;15906;52.046;4.724;2023-05-19T12:11:20;21.40;88.60
27540;DHT22;15906;52.046;4.724;2023-05-19T12:13:49;21.60;88.80
27540;DHT22;15906;52.046;4.724;2023-05-19T12:16:21;21.60;86.70
27540;DHT22;15906;52.046;4.724;2023-05-19T12:18:47;21.60;83.20
27540;DHT22;15906;52.046;4.724;2023-05-19T12:21:13;21.80;87.20
27540;DHT22;15906;52.046;4.724;2023-05-19T12:23:38;21.80;84.30
27540;DHT22;15906;52.046;4.724;2023-05-19T12:26:05;21.80;83.80
27540;DHT22;15906;52.046;4.724;2023-05-19T12:28:32;21.50;81.80
27540;DHT22;15906;52.046;4.724;2023-05-19T12:30:57;21.50;87.00
27540;DHT22;15906;52.046;4.724;2023-05-19T12:33:23;21.40;84.60
27540;DHT22;15906;52.046;4.724;2023-05-19T12:35:49;21.40;83.10
27540;DHT22;15906;52.046;4.724;2023-05-19T12:38:15;21.10;83.10
27540;DHT22;15906;52.046;4.724;2023-05-19T12:40:41;20.90;85.80
27540;DHT22;15906;52.046;4.724;2023-05-19T12:43:07;21.20;86.30
27540;DHT22;15906;52.046;4.724;2023-05-19T12:45:34;21.40;85.90
27540;DHT22;15906;52.046;4.724;2023-05-19T12:48:21;21.20;85.20
27540;DHT22;15906;52.046;4.724;2023-05-19T12:50:47;21.30;83.10
27540;DHT22;15906;52.046;4.724;2023-05-19T12:53:14;21.20;81.80
27540;DHT22;15906;52.046;4.724;2023-05-19T12:55:41;20.90;82.10
27540;DHT22;15906;52.046;4.724;2023-05-19T12:58:07;21.00;84.80
27540;DHT22;15906;52.046;4.724;2023-05-19T13:00:45;21.10;81.60
27540;DHT22;15906;52.046;4.724;2023-05-19T13:03:19;21.00;84.80
27540;DHT22;15906;52.046;4.724;2023-05-19T13:05:47;21.20;82.80
27540;DHT22;15906;52.046;4.724;2023-05-19T13:08:18;21.10;85.20
27540;DHT22;15906;52.046;4.724;2023-05-19T13:10:45;21.20;83.60
27540;DHT22;15906;52.046;4.724;2023-05-19T13:13:12;21.30;81.00
27540;DHT22;15906;52.046;4.724;2023-05-19T13:15:40;21.00;79.20
27540;DHT22;15906;52.046;4.724;2023-05-19T13:18:07;20.80;81.90
27540;DHT22;15906;52.046;4.724;2023-05-19T13:20:34;20.80;83.40
27540;DHT22;15906;52.046;4.724;2023-05-19T13:23:00;21.20;82.20
27540;DHT22;15906;52.046;4.724;2023-05-19T13:25:26;20.90;82.30
27540;DHT22;15906;52.046;4.724;2023-05-19T13:27:53;21.00;80.60
27540;DHT22;15906;52.046;4.724;2023-05-19T13:30:23;21.00;82.70
27540;DHT22;15906;52.046;4.724;2023-05-19T13:32:50;20.90;81.90
27540;DHT22;15906;52.046;4.724;2023-05-19T13:35:16;20.90;81.20
27540;DHT22;15906;52.046;4.724;2023-05-19T13:37:42;21.00;80.00
27540;DHT22;15906;52.046;4.724;2023-05-19T13:40:09;21.00;84.00
27540;DHT22;15906;52.046;4.724;2023-05-19T13:42:35;21.00;79.20
27540;DHT22;15906;52.046;4.724;2023-05-19T13:45:01;20.90;79.40
27540;DHT22;15906;52.046;4.724;2023-05-19T13:47:27;20.80;85.10
27540;DHT22;15906;52.046;4.724;2023-05-19T13:49:52;21.00;83.20
27540;DHT22;15906;52.046;4.724;2023-05-19T13:52:19;21.00;82.00
27540;DHT22;15906;52.046;4.724;2023-05-19T13:54:45;20.90;80.80
27540;DHT22;15906;52.046;4.724;2023-05-19T13:57:11;20.80;82.70
27540;DHT22;15906;52.046;4.724;2023-05-19T13:59:36;20.70;81.80
27540;DHT22;15906;52.046;4.724;2023-05-19T14:02:02;20.70;84.60
27540;DHT22;15906;52.046;4.724;2023-05-19T14:04:28;20.70;82.80
27540;DHT22;15906;52.046;4.724;2023-05-19T14:06:53;20.40;80.30
27540;DHT22;15906;52.046;4.724;2023-05-19T14:09:19;20.00;80.40
27540;DHT22;15906;52.046;4.724;2023-05-19T14:11:46;19.90;83.80
27540;DHT22;15906;52.046;4.724;2023-05-19T14:14:11;19.80;83.00
27540;DHT22;15906;52.046;4.724;2023-05-19T14:16:38;19.80;84.80
27540;DHT22;15906;52.046;4.724;2023-05-19T14:19:04;20.00;86.90
27540;DHT22;15906;52.046;4.724;2023-05-19T14:21:29;20.10;83.70
27540;DHT22;15906;52.046;4.724;2023-05-19T14:23:55;20.10;83.10
27540;DHT22;15906;52.046;4.724;2023-05-19T14:26:21;20.20;84.20
27540;DHT22;15906;52.046;4.724;2023-05-19T14:28:46;20.10;83.40
27540;DHT22;15906;52.046;4.724;2023-05-19T14:31:12;19.90;83.90
27540;DHT22;15906;52.046;4.724;2023-05-19T14:33:38;19.70;82.90
27540;DHT22;15906;52.046;4.724;2023-05-19T14:36:05;19.60;82.10
27540;DHT22;15906;52.046;4.724;2023-05-19T14:38:30;19.50;82.90
27540;DHT22;15906;52.046;4.724;2023-05-19T14:40:56;19.50;84.60
27540;DHT22;15906;52.046;4.724;2023-05-19T14:43:22;19.50;86.20
27540;DHT22;15906;52.046;4.724;2023-05-19T14:45:49;19.60;84.80
27540;DHT22;15906;52.046;4.724;2023-05-19T14:48:14;19.50;84.90
27540;DHT22;15906;52.046;4.724;2023-05-19T14:50:40;19.30;86.50
27540;DHT22;15906;52.046;4.724;2023-05-19T14:53:05;19.40;84.70
27540;DHT22;15906;52.046;4.724;2023-05-19T14:55:31;19.30;83.10
27540;DHT22;15906;52.046;4.724;2023-05-19T14:57:57;19.20;85.80
27540;DHT22;15906;52.046;4.724;2023-05-19T15:00:22;19.30;85.40
27540;DHT22;15906;52.046;4.724;2023-05-19T15:02:51;19.30;84.90
27540;DHT22;15906;52.046;4.724;2023-05-19T15:05:16;19.20;86.70
27540;DHT22;15906;52.046;4.724;2023-05-19T15:07:42;19.20;85.40
27540;DHT22;15906;52.046;4.724;2023-05-19T15:10:08;19.10;85.30
27540;DHT22;15906;52.046;4.724;2023-05-19T15:12:33;19.00;88.40
27540;DHT22;15906;52.046;4.724;2023-05-19T15:14:59;18.90;87.70
27540;DHT22;15906;52.046;4.724;2023-05-19T15:17:24;19.00;87.60
27540;DHT22;15906;52.046;4.724;2023-05-19T15:19:50;19.00;86.40
27540;DHT22;15906;52.046;4.724;2023-05-19T15:22:15;19.00;87.20
27540;DHT22;15906;52.046;4.724;2023-05-19T15:24:41;18.80;87.00
27540;DHT22;15906;52.046;4.724;2023-05-19T15:27:07;18.70;85.60
27540;DHT22;15906;52.046;4.724;2023-05-19T15:29:33;18.70;85.70
27540;DHT22;15906;52.046;4.724;2023-05-19T15:31:59;18.70;86.40
27540;DHT22;15906;52.046;4.724;2023-05-19T15:34:24;18.60;86.60
27540;DHT22;15906;52.046;4.724;2023-05-19T15:36:50;18.60;87.00
27540;DHT22;15906;52.046;4.724;2023-05-19T15:39:15;18.70;86.60
27540;DHT22;15906;52.046;4.724;2023-05-19T15:41:41;18.60;86.00
27540;DHT22;15906;52.046;4.724;2023-05-19T15:44:06;18.70;86.20
27540;DHT22;15906;52.046;4.724;2023-05-19T15:46:32;18.70;85.80
27540;DHT22;15906;52.046;4.724;2023-05-19T15:48:58;18.70;86.30
27540;DHT22;15906;52.046;4.724;2023-05-19T15:51:24;18.70;85.70
27540;DHT22;15906;52.046;4.724;2023-05-19T15:53:50;18.80;86.10
27540;DHT22;15906;52.046;4.724;2023-05-19T15:56:16;18.80;86.10
27540;DHT22;15906;52.046;4.724;2023-05-19T15:58:41;18.60;84.60
27540;DHT22;15906;52.046;4.724;2023-05-19T16:01:08;18.80;87.20
27540;DHT22;15906;52.046;4.724;2023-05-19T16:03:33;18.50;84.20